sim
Sign-in with your pilot id or email,
or register
Callsign
Passwort

Schedule Details

Flight Number: OEO5846
Departure: Lanzarote Airport (GCRR) at 16:25
Arrival: Munich Airport (EDDM) at 20:55

Weather Information
Getting current METAR information for GCRR 211230Z 36010KT 320V030 CAVOK 30/18 Q1017
Getting current METAR information for EDDM 211250Z 03004KT 340V140 CAVOK 23/12 Q1016 NOSIG

Schedule Frequency

Route Map